Terminal Aerodrome Forecast
Issued by NWS

Home | Current Version | Previous Version | Text Only | Print | Product List | Glossary On
Versions: 1 2 3 4 5 6 7 8 9 10 11 12 13 14
000
FTPQ31 PGUM 301129
TAFGUM
TAF

TAF
PKMJ 301129Z 3012/3112 08008KT P6SM VCSH FEW015 SCT050 SCT120
     FM301500 07011KT P6SM VCSH SCT015 SCT050 BKN120
     FM310100 09010KT P6SM VCSH SCT015 BKN050 BKN120=

USA.gov is the U.S. government's official web portal to all federal, state and local government web resources and services.